createdAt,value
2023-02-19T00:03:08.747Z,66.69
2023-02-19T00:08:12.091Z,67.60
2023-02-19T00:13:15.080Z,68.04
2023-02-19T00:18:17.907Z,68.73
2023-02-19T00:23:23.281Z,68.82
2023-02-19T00:28:26.035Z,69.21
2023-02-19T00:33:29.676Z,69.37
2023-02-19T00:38:37.331Z,69.13
2023-02-19T00:43:40.228Z,68.94
2023-02-19T00:48:43.348Z,69.37
2023-02-19T00:53:46.518Z,69.16
2023-02-19T00:58:50.055Z,69.39
2023-02-19T01:03:53.158Z,70.17
2023-02-19T01:08:56.316Z,70.61
2023-02-19T01:14:00.968Z,71.17
2023-02-19T01:19:04.252Z,72.92
2023-02-19T01:24:07.184Z,73.63
2023-02-19T01:29:10.531Z,73.92
2023-02-19T01:34:13.383Z,73.76
2023-02-19T01:39:16.418Z,73.61
2023-02-19T01:44:22.137Z,73.51
2023-02-19T01:49:33.667Z,74.12
2023-02-19T01:54:38.522Z,73.87
2023-02-19T01:59:42.015Z,73.37
2023-02-19T02:04:45.046Z,73.79
2023-02-19T02:10:07.209Z,73.96
2023-02-19T02:15:10.846Z,73.62
2023-02-19T02:20:44.541Z,73.48
2023-02-19T02:26:24.152Z,73.45
2023-02-19T02:31:43.693Z,73.57
2023-02-19T02:36:53.956Z,73.56
2023-02-19T02:42:18.950Z,73.64
2023-02-19T02:47:42.157Z,73.58
2023-02-19T02:53:06.801Z,73.80
2023-02-19T02:58:11.875Z,74.18
2023-02-19T03:03:18.320Z,74.56
2023-02-19T03:08:46.952Z,75.50
2023-02-19T03:14:14.329Z,75.96
2023-02-19T03:19:20.673Z,76.05
2023-02-19T03:24:50.166Z,76.18
2023-02-19T03:29:57.588Z,76.29
2023-02-19T03:35:16.927Z,76.53
2023-02-19T03:40:21.821Z,76.45
2023-02-19T03:45:39.713Z,76.74
2023-02-19T03:51:03.780Z,77.03
2023-02-19T03:56:34.296Z,78.01
2023-02-19T04:01:54.362Z,78.51
2023-02-19T04:06:58.965Z,78.03
2023-02-19T04:12:03.038Z,77.84
2023-02-19T04:17:14.026Z,77.24
2023-02-19T04:22:17.971Z,77.13
2023-02-19T04:27:21.230Z,77.26
2023-02-19T04:32:24.288Z,76.82
2023-02-19T04:37:27.043Z,77.09
2023-02-19T04:42:30.067Z,77.14
2023-02-19T04:47:33.566Z,77.44
2023-02-19T04:52:36.506Z,77.96
2023-02-19T04:57:39.534Z,78.67
2023-02-19T05:02:42.385Z,77.87
2023-02-19T05:07:45.362Z,77.25
2023-02-19T05:12:48.337Z,77.50
2023-02-19T05:17:53.675Z,77.36
2023-02-19T05:22:57.096Z,77.69
2023-02-19T05:28:17.085Z,77.46
2023-02-19T05:33:23.692Z,77.16
2023-02-19T05:38:26.951Z,76.89
2023-02-19T05:43:29.954Z,76.75
2023-02-19T05:48:33.686Z,76.69
2023-02-19T05:53:37.201Z,76.25
2023-02-19T05:58:40.102Z,76.31
2023-02-19T06:03:43.281Z,76.44
2023-02-19T06:08:47.897Z,76.84
2023-02-19T06:13:51.708Z,77.19
2023-02-19T06:18:54.631Z,77.49
2023-02-19T06:23:58.300Z,78.78
2023-02-19T06:29:01.234Z,79.57
2023-02-19T06:34:05.463Z,80.00
2023-02-19T06:39:09.766Z,80.37
2023-02-19T06:44:12.700Z,80.66
2023-02-19T06:49:15.675Z,81.02
2023-02-19T06:54:18.651Z,80.99
2023-02-19T06:59:21.512Z,81.46
2023-02-19T07:04:24.595Z,81.06
2023-02-19T07:09:28.645Z,81.15
2023-02-19T07:14:31.762Z,80.93
2023-02-19T07:19:34.641Z,80.87
2023-02-19T07:24:37.770Z,80.81
2023-02-19T07:29:40.668Z,80.70
2023-02-19T07:34:43.592Z,80.38
2023-02-19T07:39:46.493Z,80.21
2023-02-19T07:44:49.461Z,79.46
2023-02-19T07:49:52.383Z,79.46
2023-02-19T07:54:55.330Z,78.83
2023-02-19T07:59:59.025Z,77.62
2023-02-19T08:05:02.201Z,76.87
2023-02-19T08:10:24.463Z,77.41
2023-02-19T08:15:28.146Z,80.18
2023-02-19T08:20:30.936Z,82.74
2023-02-19T08:25:34.685Z,85.41
2023-02-19T08:30:40.753Z,87.36
2023-02-19T08:35:44.525Z,89.12
2023-02-19T08:40:47.412Z,91.51
2023-02-19T08:45:54.574Z,93.21
2023-02-19T08:51:03.851Z,94.65
2023-02-19T08:56:16.589Z,96.27
2023-02-19T09:01:19.638Z,97.47
2023-02-19T09:06:22.751Z,98.83
2023-02-19T09:11:25.730Z,99.87
2023-02-19T09:16:28.803Z,100.00
2023-02-19T09:21:31.840Z,100.00
2023-02-19T09:26:36.488Z,100.00
2023-02-19T09:31:40.673Z,100.00
2023-02-19T09:36:43.657Z,100.00
2023-02-19T09:41:53.572Z,100.00
2023-02-19T09:46:57.097Z,100.00
2023-02-19T09:52:02.940Z,100.00
2023-02-19T09:57:15.057Z,100.00
2023-02-19T10:02:24.364Z,100.00
2023-02-19T10:07:40.072Z,100.00
2023-02-19T10:12:59.487Z,100.00
2023-02-19T10:18:04.993Z,100.00
2023-02-19T10:23:12.159Z,100.00
2023-02-19T10:28:22.946Z,98.92
2023-02-19T10:33:27.227Z,96.07
2023-02-19T10:38:38.099Z,94.45
2023-02-19T10:44:18.794Z,91.03
2023-02-19T10:49:36.168Z,85.90
2023-02-19T10:54:40.957Z,80.40
2023-02-19T10:59:58.292Z,75.38
2023-02-19T11:05:14.872Z,70.80
2023-02-19T11:10:40.843Z,68.03
2023-02-19T11:15:50.206Z,65.13
2023-02-19T11:21:06.277Z,64.45
2023-02-19T11:26:29.250Z,63.28
2023-02-19T11:31:36.293Z,62.32
2023-02-19T11:36:39.733Z,62.42
2023-02-19T11:41:57.830Z,62.41
2023-02-19T11:47:27.953Z,61.15
2023-02-19T11:52:42.870Z,59.60
2023-02-19T11:58:14.672Z,59.47
2023-02-19T12:04:00.769Z,59.92
2023-02-19T12:09:21.344Z,58.37
2023-02-19T12:14:52.342Z,58.45
2023-02-19T12:20:11.469Z,59.16
2023-02-19T12:25:48.390Z,59.71
2023-02-19T12:31:33.044Z,61.15
2023-02-19T12:36:57.207Z,62.35
2023-02-19T12:42:07.722Z,64.67
2023-02-19T12:47:23.400Z,65.90
2023-02-19T12:52:31.853Z,66.85
2023-02-19T12:57:38.356Z,68.07
2023-02-19T13:03:00.427Z,68.91
2023-02-19T13:08:35.596Z,67.56
2023-02-19T13:13:57.102Z,66.79
2023-02-19T13:19:03.466Z,69.04
2023-02-19T13:24:20.972Z,73.73
2023-02-19T13:30:00.252Z,77.63
2023-02-19T13:35:15.418Z,79.25
2023-02-19T13:40:37.039Z,79.70
2023-02-19T13:45:42.532Z,79.28
2023-02-19T13:50:45.885Z,78.83
2023-02-19T13:55:52.693Z,77.94
2023-02-19T14:00:55.745Z,76.53
2023-02-19T14:05:58.712Z,73.42
2023-02-19T14:11:05.153Z,70.82
2023-02-19T14:16:41.219Z,68.46
2023-02-19T14:21:46.502Z,67.54
2023-02-19T14:26:49.429Z,67.48
2023-02-19T14:31:53.126Z,68.05
2023-02-19T14:37:01.382Z,68.84
2023-02-19T14:42:14.962Z,68.77
2023-02-19T14:47:22.959Z,69.71
2023-02-19T14:52:44.473Z,69.56
2023-02-19T14:57:50.554Z,68.99
2023-02-19T15:02:57.718Z,69.21
2023-02-19T15:08:09.011Z,69.11
2023-02-19T15:13:20.000Z,70.07
2023-02-19T15:18:26.698Z,71.26
2023-02-19T15:23:33.791Z,71.83
2023-02-19T15:28:36.810Z,72.32
2023-02-19T15:33:40.111Z,73.02
2023-02-19T15:38:44.112Z,73.45
2023-02-19T15:44:01.145Z,74.48
2023-02-19T15:49:15.103Z,74.99
2023-02-19T15:54:40.185Z,75.69
2023-02-19T15:59:51.444Z,76.23
2023-02-19T16:04:54.499Z,76.72
2023-02-19T16:10:24.133Z,77.23
2023-02-19T16:15:29.236Z,77.37
2023-02-19T16:20:35.319Z,77.60
2023-02-19T16:25:46.626Z,77.66
2023-02-19T16:31:09.733Z,78.24
2023-02-19T16:36:42.669Z,80.02
2023-02-19T16:41:48.559Z,81.77
2023-02-19T16:46:55.702Z,82.85
2023-02-19T16:52:02.667Z,82.71
2023-02-19T16:57:07.321Z,82.40
2023-02-19T17:02:18.376Z,81.68
2023-02-19T17:07:22.509Z,82.14
2023-02-19T17:12:25.918Z,82.83
2023-02-19T17:17:28.673Z,83.69
2023-02-19T17:22:31.970Z,84.80
2023-02-19T17:27:35.122Z,85.15
2023-02-19T17:32:38.627Z,85.33
2023-02-19T17:37:41.559Z,84.75
2023-02-19T17:42:44.747Z,83.98
2023-02-19T17:47:48.119Z,82.90
2023-02-19T17:52:51.148Z,82.34
2023-02-19T17:57:54.496Z,82.08
2023-02-19T18:02:58.398Z,81.76
2023-02-19T18:08:01.447Z,81.18
2023-02-19T18:13:11.716Z,81.97
2023-02-19T18:18:14.715Z,82.62
2023-02-19T18:23:17.538Z,83.01
2023-02-19T18:28:21.758Z,83.27
2023-02-19T18:33:24.835Z,83.44
2023-02-19T18:38:27.923Z,83.88
2023-02-19T18:43:30.796Z,84.01
2023-02-19T18:48:33.883Z,84.40
2023-02-19T18:53:37.015Z,84.58
2023-02-19T18:58:42.106Z,85.16
2023-02-19T19:03:44.827Z,84.71
2023-02-19T19:08:47.797Z,84.88
2023-02-19T19:13:51.545Z,85.16
2023-02-19T19:18:56.156Z,85.31
2023-02-19T19:24:00.596Z,85.67
2023-02-19T19:29:03.561Z,85.81
2023-02-19T19:34:06.522Z,85.18
2023-02-19T19:39:14.621Z,84.68
2023-02-19T19:44:17.777Z,84.47
2023-02-19T19:49:22.924Z,84.46
2023-02-19T19:54:26.046Z,84.40
2023-02-19T19:59:29.072Z,83.30
2023-02-19T20:04:32.130Z,81.45
2023-02-19T20:09:35.143Z,80.38
2023-02-19T20:14:38.252Z,78.18
2023-02-19T20:19:41.756Z,76.10
2023-02-19T20:24:44.653Z,73.80
2023-02-19T20:29:51.969Z,71.92
2023-02-19T20:34:58.264Z,70.70
2023-02-19T20:40:01.137Z,70.85
2023-02-19T20:45:05.389Z,70.08
2023-02-19T20:50:09.101Z,69.53
2023-02-19T20:55:12.842Z,70.03
2023-02-19T21:00:17.188Z,69.08
2023-02-19T21:05:20.597Z,68.27
2023-02-19T21:10:24.483Z,67.18
2023-02-19T21:15:31.147Z,66.89
2023-02-19T21:20:36.471Z,66.17
2023-02-19T21:25:39.508Z,65.50
2023-02-19T21:30:42.281Z,64.98
2023-02-19T21:35:45.765Z,64.66
2023-02-19T21:40:48.804Z,64.56
2023-02-19T21:45:51.796Z,65.02
2023-02-19T21:50:55.412Z,65.77
2023-02-19T21:55:59.067Z,66.24
2023-02-19T22:01:02.396Z,66.18
2023-02-19T22:06:05.902Z,65.49
2023-02-19T22:11:08.904Z,65.11
2023-02-19T22:16:12.222Z,64.96
2023-02-19T22:21:15.939Z,65.04
2023-02-19T22:26:27.121Z,63.98
2023-02-19T22:31:33.383Z,63.31
2023-02-19T22:36:44.515Z,62.58
2023-02-19T22:41:48.414Z,61.80
2023-02-19T22:46:55.267Z,61.88
2023-02-19T22:52:07.450Z,62.31
2023-02-19T22:57:10.436Z,61.48
2023-02-19T23:02:13.628Z,61.64
2023-02-19T23:07:17.660Z,61.86
2023-02-19T23:12:20.605Z,61.55
2023-02-19T23:17:25.028Z,62.37
2023-02-19T23:22:28.733Z,61.59
2023-02-19T23:27:31.732Z,61.33
2023-02-19T23:32:34.710Z,61.65
2023-02-19T23:37:37.855Z,61.43
2023-02-19T23:42:40.841Z,61.85
2023-02-19T23:47:43.905Z,62.19
2023-02-19T23:52:46.861Z,62.43
2023-02-19T23:57:50.056Z,62.32
